Time;durP1;ratioP1;P1;durP2;ratioP2;P2;SDS_P1;SDS_P2;PMS_P1;PMS_P2;Temp;Humidity;BMP_temperature;BMP_pressure;BME280_temperature;BME280_humidity;BME280_pressure;Samples;Min_cycle;Max_cycle;Signal;HPM_P1;HPM_P2
2021/11/09 00:00:41;;;;;;;11.50;9.93;;;;;;;11.89;67.02;101935.66;2064762;28;20417;-68
2021/11/09 00:01:54;;;;;;;12.23;10.13;;;;;;;12.12;66.99;101969.97;2064623;28;20154;-68
2021/11/09 00:02:55;;;;;;;11.50;10.10;;;;;;;11.57;66.85;101880.31;2064627;28;20459;-68
2021/11/09 00:04:03;;;;;;;11.47;10.10;;;;;;;12.23;66.68;101976.22;2064822;28;21004;-68
2021/11/09 00:05:06;;;;;;;11.43;9.23;;;;;;;11.99;66.56;101945.88;2064812;28;20409;-68
2021/11/09 00:06:23;;;;;;;12.17;10.20;;;;;;;12.29;66.86;101982.91;2064814;28;20784;-68
2021/11/09 00:07:29;;;;;;;10.77;9.63;;;;;;;12.31;66.57;101977.75;2063778;28;20416;-67
2021/11/09 00:08:36;;;;;;;13.30;10.43;;;;;;;12.33;66.22;101977.31;2064696;28;20423;-68
2021/11/09 00:09:56;;;;;;;12.70;9.90;;;;;;;12.30;66.30;101972.59;2064696;28;20415;-68
2021/11/09 00:10:57;;;;;;;12.03;10.53;;;;;;;11.60;66.31;101860.13;2064714;28;20903;-67
2021/11/09 00:11:58;;;;;;;12.27;9.80;;;;;;;12.32;66.26;101973.75;2064344;28;20804;-68
2021/11/09 00:13:02;;;;;;;12.27;10.20;;;;;;;12.16;66.44;101962.41;2064820;28;20675;-67
2021/11/09 00:14:02;;;;;;;10.73;9.50;;;;;;;11.75;66.62;101872.69;2064779;28;20627;-68
2021/11/09 00:15:06;;;;;;;11.10;9.23;;;;;;;12.35;66.74;101961.03;2064729;28;20592;-67
2021/11/09 00:16:07;;;;;;;12.57;9.83;;;;;;;12.39;66.67;101959.78;2070582;28;20177;-67
2021/11/09 00:17:09;;;;;;;13.30;9.63;;;;;;;12.42;66.47;101966.50;2071629;28;20930;-67
2021/11/09 00:18:10;;;;;;;10.53;9.17;;;;;;;11.69;66.34;101851.31;2072801;28;20233;-68
2021/11/09 00:19:10;;;;;;;10.90;9.30;;;;;;;12.43;66.54;101966.09;2072803;28;20605;-67
2021/11/09 00:20:14;;;;;;;11.40;9.70;;;;;;;12.45;66.23;101976.81;2072656;28;20456;-67
2021/11/09 00:21:19;;;;;;;10.60;8.70;;;;;;;12.43;66.00;101974.44;2072779;28;20169;-67
2021/11/09 00:22:22;;;;;;;10.83;9.20;;;;;;;12.41;65.76;101976.06;2072352;28;20479;-68
2021/11/09 00:23:23;;;;;;;10.37;8.77;;;;;;;12.42;65.99;101974.84;2072740;28;20480;-67
2021/11/09 00:24:23;;;;;;;10.73;8.60;;;;;;;12.29;66.26;101966.22;2072497;28;20481;-67
2021/11/09 00:25:25;;;;;;;10.53;9.10;;;;;;;12.32;66.24;101968.19;2072130;28;20209;-67
2021/11/09 00:26:27;;;;;;;10.57;8.93;;;;;;;12.24;66.25;101958.34;2072532;28;20165;-67
2021/11/09 00:27:27;;;;;;;10.53;8.83;;;;;;;12.30;66.25;101961.47;2071738;28;20459;-67
2021/11/09 00:28:28;;;;;;;10.37;8.33;;;;;;;12.27;66.31;101974.19;2072569;28;20405;-67
2021/11/09 00:29:28;;;;;;;9.97;8.43;;;;;;;12.21;66.31;101956.41;2080239;28;20177;-68
2021/11/09 00:30:30;;;;;;;11.00;8.60;;;;;;;12.26;66.19;101946.81;2080116;28;20608;-67
2021/11/09 00:31:30;;;;;;;10.83;8.60;;;;;;;12.29;66.14;101946.78;2072810;28;20185;-67
2021/11/09 00:32:31;;;;;;;11.70;8.53;;;;;;;12.20;66.23;101929.78;2072129;28;20403;-67
2021/11/09 00:33:31;;;;;;;9.77;8.73;;;;;;;12.28;66.08;101936.06;2072774;28;20173;-67
2021/11/09 00:34:32;;;;;;;10.33;8.57;;;;;;;11.72;66.14;101847.69;2072519;28;20200;-68
2021/11/09 00:35:34;;;;;;;10.37;8.17;;;;;;;12.26;66.35;101935.69;2072601;28;20178;-67
2021/11/09 00:36:34;;;;;;;9.40;8.40;;;;;;;12.16;66.39;101917.13;2072656;28;20184;-67
2021/11/09 00:37:35;;;;;;;9.57;8.40;;;;;;;12.27;66.44;101937.25;2071574;28;20511;-68
2021/11/09 00:38:36;;;;;;;9.80;8.37;;;;;;;12.29;66.57;101949.56;2072573;28;20517;-67
2021/11/09 00:39:37;;;;;;;10.50;9.07;;;;;;;12.34;66.24;101953.88;2072321;28;20188;-67
2021/11/09 00:40:39;;;;;;;10.40;8.37;;;;;;;12.34;66.28;101953.88;2072587;28;20669;-67
2021/11/09 00:41:40;;;;;;;10.00;8.67;;;;;;;12.41;66.23;101953.81;2072474;28;20447;-67
2021/11/09 00:42:41;;;;;;;9.47;8.43;;;;;;;12.35;66.13;101938.78;2072251;28;20875;-67
2021/11/09 00:43:42;;;;;;;11.80;9.10;;;;;;;12.28;65.96;101925.75;2072482;28;20177;-67
2021/11/09 00:44:42;;;;;;;10.20;8.80;;;;;;;12.13;66.15;101913.19;2072726;28;20185;-68
2021/11/09 00:45:43;;;;;;;10.00;8.47;;;;;;;12.00;66.15;101906.53;2072446;28;20266;-67
2021/11/09 00:46:44;;;;;;;11.37;8.67;;;;;;;11.94;66.29;101896.31;2072386;28;20262;-68
2021/11/09 00:47:45;;;;;;;12.60;9.07;;;;;;;11.95;66.50;101895.09;2071647;28;20421;-67
2021/11/09 00:48:46;;;;;;;10.87;9.17;;;;;;;11.97;66.83;101890.72;2072438;28;20226;-67
2021/11/09 00:49:46;;;;;;;11.30;9.57;;;;;;;11.92;66.77;101882.03;2072335;28;20429;-68
2021/11/09 00:50:49;;;;;;;12.60;10.57;;;;;;;11.80;67.19;101890.88;2072591;28;20220;-67
2021/11/09 00:51:50;;;;;;;13.57;10.57;;;;;;;10.88;67.44;101754.00;2072547;28;20178;-68
2021/11/09 00:52:51;;;;;;;12.87;10.33;;;;;;;11.61;67.59;101883.09;2072212;28;20407;-68
2021/11/09 00:53:52;;;;;;;13.20;10.77;;;;;;;11.64;67.69;101890.63;2072444;28;21005;-67
2021/11/09 00:54:52;;;;;;;12.73;10.40;;;;;;;11.65;67.82;101894.97;2072500;28;20777;-67
2021/11/09 00:55:54;;;;;;;14.70;10.17;;;;;;;11.29;67.95;101855.56;2072347;28;20166;-67
2021/11/09 00:56:55;;;;;;;12.90;10.30;;;;;;;11.69;68.24;101917.94;2071480;28;20247;-68
2021/11/09 00:57:56;;;;;;;11.17;9.37;;;;;;;11.69;67.96;101915.19;2072477;28;20511;-67
2021/11/09 00:58:57;;;;;;;11.17;9.57;;;;;;;11.71;67.75;101912.78;2072472;28;20976;-68
2021/11/09 00:59:57;;;;;;;12.60;9.67;;;;;;;11.36;67.94;101863.03;2072325;28;20679;-68
2021/11/09 01:00:58;;;;;;;12.67;9.73;;;;;;;11.74;68.06;101915.50;2072371;28;20420;-68
2021/11/09 01:01:59;;;;;;;11.37;9.40;;;;;;;11.72;68.20;101912.38;2071990;28;20312;-68
2021/11/09 01:03:04;;;;;;;11.60;9.03;;;;;;;11.63;67.83;101900.94;2072493;28;20162;-68
2021/11/09 01:04:06;;;;;;;12.73;9.97;;;;;;;11.91;67.71;101941.56;2072510;28;20510;-67
2021/11/09 01:05:09;;;;;;;11.30;9.73;;;;;;;11.94;67.46;101954.66;2079864;28;20427;-68
2021/11/09 01:06:09;;;;;;;11.37;8.97;;;;;;;11.83;67.20;101940.06;2079788;28;20416;-68
2021/11/09 01:07:10;;;;;;;9.97;8.47;;;;;;;11.97;66.89;101953.81;2071385;28;20432;-68
2021/11/09 01:08:15;;;;;;;9.87;8.63;;;;;;;12.00;66.90;101953.78;2072347;28;20563;-67
2021/11/09 01:09:16;;;;;;;10.37;8.60;;;;;;;11.77;66.70;101927.78;2072333;28;20173;-67
2021/11/09 01:10:17;;;;;;;10.20;7.73;;;;;;;11.38;66.51;101860.66;2072297;28;20424;-68
2021/11/09 01:11:18;;;;;;;9.13;7.67;;;;;;;12.03;66.36;101957.72;2074136;28;20429;-67
2021/11/09 01:12:19;;;;;;;8.50;7.60;;;;;;;12.00;66.37;101956.56;2072037;28;21010;-68
2021/11/09 01:13:21;;;;;;;9.60;7.57;;;;;;;12.00;66.57;101962.13;2072304;28;20799;-67
2021/11/09 01:14:24;;;;;;;8.50;6.97;;;;;;;12.02;65.82;101947.81;2072332;28;20614;-68
2021/11/09 01:15:25;;;;;;;8.13;6.83;;;;;;;11.91;65.85;101928.47;2072386;28;20424;-67
2021/11/09 01:16:26;;;;;;;7.17;6.03;;;;;;;12.00;65.93;101945.44;2072193;28;20940;-68
2021/11/09 01:17:27;;;;;;;9.10;7.27;;;;;;;11.93;65.69;101933.63;2078850;28;20408;-68
2021/11/09 01:18:36;;;;;;;10.17;7.10;;;;;;;11.84;65.79;101917.41;2071498;28;20440;-68
2021/11/09 01:19:38;;;;;;;9.93;7.03;;;;;;;12.02;65.94;101951.41;2071711;28;20524;-68
2021/11/09 01:20:39;;;;;;;7.60;6.57;;;;;;;12.02;65.91;101954.19;2072070;28;20424;-68
2021/11/09 01:21:41;;;;;;;10.13;7.50;;;;;;;12.07;65.61;101966.81;2072360;28;20737;-68
2021/11/09 01:22:45;;;;;;;8.37;6.73;;;;;;;12.05;65.42;101963.69;2071901;28;20305;-68
2021/11/09 01:23:54;;;;;;;8.13;7.03;;;;;;;12.09;65.69;101961.66;2072351;28;20417;-68
2021/11/09 01:24:55;;;;;;;8.87;7.10;;;;;;;12.12;65.59;101958.06;2072177;28;20471;-67
2021/11/09 01:25:56;;;;;;;10.73;6.90;;;;;;;11.71;65.29;101902.47;2072146;28;20947;-69
2021/11/09 01:26:57;;;;;;;9.63;7.00;;;;;;;12.00;65.50;101951.00;2071156;28;20276;-67
2021/11/09 01:27:58;;;;;;;8.93;6.80;;;;;;;12.05;65.35;101961.69;2072373;28;20903;-68
2021/11/09 01:29:01;;;;;;;8.47;6.77;;;;;;;11.60;65.43;101890.66;2072215;28;20486;-68
2021/11/09 01:30:05;;;;;;;9.97;6.83;;;;;;;12.06;65.85;101956.91;2072349;28;20402;-68
2021/11/09 01:31:08;;;;;;;8.27;6.47;;;;;;;12.08;65.55;101960.88;2072150;28;20420;-67
2021/11/09 01:32:08;;;;;;;7.90;6.90;;;;;;;12.14;65.68;101958.44;2071935;28;20483;-67
2021/11/09 01:33:09;;;;;;;7.43;6.30;;;;;;;12.15;65.11;101960.03;2072186;28;20407;-67
2021/11/09 01:34:10;;;;;;;8.63;6.70;;;;;;;12.18;65.41;101973.06;2072415;28;20165;-68
2021/11/09 01:35:11;;;;;;;8.43;6.90;;;;;;;12.20;65.37;101962.34;2072133;28;20193;-68
2021/11/09 01:36:12;;;;;;;8.77;6.80;;;;;;;12.25;65.07;101973.03;2071784;28;20542;-67
2021/11/09 01:37:12;;;;;;;8.87;6.50;;;;;;;12.28;65.15;101963.84;2071289;28;20186;-68
2021/11/09 01:38:13;;;;;;;8.73;6.67;;;;;;;11.75;64.90;101881.00;2072204;28;20165;-67
2021/11/09 01:39:14;;;;;;;8.73;7.13;;;;;;;12.30;64.83;101965.03;2072043;28;20228;-67
2021/11/09 01:40:16;;;;;;;11.10;6.73;;;;;;;12.35;65.12;101966.59;2072197;28;20190;-67
2021/11/09 01:41:18;;;;;;;7.37;6.40;;;;;;;12.32;64.83;101981.28;2072218;28;20421;-67
2021/11/09 01:42:19;;;;;;;9.03;6.70;;;;;;;11.78;65.07;101885.72;2079158;28;20814;-67
2021/11/09 01:43:23;;;;;;;8.77;6.67;;;;;;;12.23;65.18;101959.53;2079702;28;20550;-68
2021/11/09 01:44:23;;;;;;;9.83;7.30;;;;;;;12.22;65.21;101963.53;2072040;28;20185;-67
2021/11/09 01:45:25;;;;;;;7.97;6.37;;;;;;;12.19;65.70;101966.34;2072245;28;20513;-67
2021/11/09 01:46:26;;;;;;;10.10;7.27;;;;;;;12.21;65.03;101963.94;2072091;28;20160;-68
2021/11/09 01:47:27;;;;;;;8.97;7.20;;;;;;;11.96;64.92;101921.69;2071226;28;20425;-67
2021/11/09 01:48:28;;;;;;;9.13;6.93;;;;;;;12.19;65.15;101963.56;2071874;28;20470;-67
2021/11/09 01:49:28;;;;;;;8.27;7.13;;;;;;;12.21;64.99;101969.50;2072274;28;20245;-67
2021/11/09 01:50:39;;;;;;;8.20;7.27;;;;;;;12.25;64.96;101968.25;2071824;28;20280;-67
2021/11/09 01:51:41;;;;;;;9.00;7.40;;;;;;;12.24;65.13;101968.69;2079635;28;20173;-67
2021/11/09 01:52:41;;;;;;;8.90;7.50;;;;;;;12.24;65.08;101968.69;2079268;28;20440;-68
2021/11/09 01:53:44;;;;;;;7.73;6.50;;;;;;;12.26;65.17;101974.59;2072085;28;20423;-68
2021/11/09 01:54:44;;;;;;;8.00;7.20;;;;;;;12.26;64.85;101975.41;2072166;28;20174;-68
2021/11/09 01:55:45;;;;;;;8.37;7.03;;;;;;;12.27;64.94;101968.66;2072089;28;20503;-67
2021/11/09 01:56:46;;;;;;;8.87;7.30;;;;;;;12.21;64.96;101953.63;2071709;28;20643;-68
2021/11/09 01:57:47;;;;;;;8.13;7.23;;;;;;;12.08;65.12;101941.41;2071814;28;20685;-68
2021/11/09 01:58:48;;;;;;;7.90;7.10;;;;;;;12.18;65.21;101964.75;2071876;28;20644;-67
2021/11/09 01:59:49;;;;;;;8.27;7.23;;;;;;;12.14;65.34;101967.56;2072042;28;20173;-67
2021/11/09 02:00:54;;;;;;;8.07;7.27;;;;;;;12.03;65.43;101952.97;2071937;28;21025;-68
2021/11/09 02:01:54;;;;;;;9.93;8.33;;;;;;;12.18;65.35;101964.75;2071813;28;20261;-68
2021/11/09 02:02:56;;;;;;;9.53;7.83;;;;;;;12.21;65.67;101961.16;2071946;28;20424;-67
2021/11/09 02:04:00;;;;;;;11.13;7.87;;;;;;;12.07;65.80;101934.28;2072070;28;20638;-68
2021/11/09 02:05:01;;;;;;;8.97;8.03;;;;;;;11.87;65.59;101908.28;2071883;28;20495;-68
2021/11/09 02:06:02;;;;;;;9.30;8.30;;;;;;;12.19;65.81;101963.56;2072162;28;20415;-68
2021/11/09 02:07:02;;;;;;;9.53;8.40;;;;;;;12.17;66.18;101971.50;2071012;28;20166;-67
2021/11/09 02:08:04;;;;;;;11.07;9.70;;;;;;;11.53;66.21;101868.44;2072071;28;20899;-68
2021/11/09 02:09:05;;;;;;;11.73;9.17;;;;;;;12.22;66.22;101971.88;2071930;28;20723;-68
2021/11/09 02:10:05;;;;;;;11.57;9.37;;;;;;;11.85;66.30;101916.25;2072195;28;20905;-68
2021/11/09 02:11:06;;;;;;;11.57;9.07;;;;;;;12.15;66.42;101969.13;2071878;28;20791;-68
2021/11/09 02:12:07;;;;;;;10.63;8.50;;;;;;;12.19;66.59;101977.47;2071749;28;20628;-68
2021/11/09 02:13:08;;;;;;;11.93;10.17;;;;;;;12.17;66.45;101986.19;2071901;28;20244;-68
2021/11/09 02:14:10;;;;;;;11.83;9.60;;;;;;;12.17;66.54;101977.06;2072052;28;20237;-67
2021/11/09 02:15:11;;;;;;;11.00;8.97;;;;;;;11.63;66.46;101886.28;2071939;28;20417;-68
2021/11/09 02:16:12;;;;;;;10.23;9.13;;;;;;;11.80;66.56;101904.75;2071951;28;20423;-67
2021/11/09 02:17:15;;;;;;;11.53;9.30;;;;;;;12.16;66.58;101978.28;2070902;28;20424;-68
2021/11/09 02:18:16;;;;;;;11.33;9.23;;;;;;;12.14;66.62;101966.78;2072100;28;20187;-68
2021/11/09 02:19:17;;;;;;;12.63;9.70;;;;;;;11.58;66.63;101873.56;2071794;28;20535;-67
2021/11/09 02:20:21;;;;;;;10.93;9.73;;;;;;;12.19;66.67;101958.78;2071949;28;20456;-68
2021/11/09 02:21:21;;;;;;;11.80;9.57;;;;;;;12.23;66.52;101969.84;2071881;28;20188;-68
2021/11/09 02:22:22;;;;;;;10.90;9.40;;;;;;;11.66;66.51;101882.66;2071454;28;20408;-68
2021/11/09 02:23:24;;;;;;;10.80;9.60;;;;;;;12.08;66.84;101960.06;2071945;28;20240;-67
2021/11/09 02:24:25;;;;;;;11.80;9.33;;;;;;;12.12;66.70;101958.84;2071986;28;20216;-68
2021/11/09 02:25:29;;;;;;;12.93;10.07;;;;;;;12.17;66.52;101960.38;2071918;28;20413;-68
2021/11/09 02:26:30;;;;;;;12.23;9.50;;;;;;;12.08;66.84;101955.31;2072005;28;20162;-67
2021/11/09 02:27:30;;;;;;;11.67;9.80;;;;;;;12.02;66.96;101962.50;2071057;28;20420;-68
2021/11/09 02:28:32;;;;;;;11.40;9.03;;;;;;;12.04;67.19;101956.56;2071948;28;20185;-68
2021/11/09 02:29:33;;;;;;;13.40;9.60;;;;;;;12.07;66.86;101961.28;2071952;28;20687;-68
2021/11/09 02:30:34;;;;;;;12.07;9.83;;;;;;;12.11;66.60;101951.72;2079372;28;20581;-68
2021/11/09 02:31:34;;;;;;;11.20;9.03;;;;;;;12.11;66.71;101953.69;2079652;28;20474;-68
2021/11/09 02:32:35;;;;;;;11.20;9.10;;;;;;;12.03;66.45;101947.41;2071604;28;20185;-68
2021/11/09 02:33:37;;;;;;;10.63;8.77;;;;;;;12.04;66.50;101951.75;2072125;28;20261;-67
2021/11/09 02:34:37;;;;;;;11.30;8.80;;;;;;;12.03;66.52;101958.53;2071891;28;20583;-68
2021/11/09 02:35:38;;;;;;;10.57;8.73;;;;;;;11.73;66.92;101908.38;2071947;28;20985;-67
2021/11/09 02:36:38;;;;;;;9.93;8.83;;;;;;;12.02;66.63;101940.28;2071967;28;20186;-68
2021/11/09 02:37:40;;;;;;;11.87;9.40;;;;;;;12.07;66.75;101948.19;2070931;28;20177;-68
2021/11/09 02:38:41;;;;;;;9.90;8.90;;;;;;;12.01;66.57;101940.69;2071915;28;20174;-68
2021/11/09 02:39:42;;;;;;;11.40;8.90;;;;;;;12.02;66.63;101945.03;2071760;28;20427;-68
2021/11/09 02:40:43;;;;;;;10.70;9.53;;;;;;;12.03;66.51;101947.41;2071916;28;20595;-68
2021/11/09 02:41:44;;;;;;;10.60;8.93;;;;;;;12.02;66.71;101950.59;2071985;28;20573;-68
2021/11/09 02:42:48;;;;;;;11.10;9.50;;;;;;;11.98;66.72;101947.06;2071555;28;20178;-68
2021/11/09 02:43:49;;;;;;;11.17;9.73;;;;;;;12.02;66.65;101943.06;2072070;28;20167;-67
2021/11/09 02:44:53;;;;;;;10.23;9.00;;;;;;;11.80;66.56;101897.22;2071865;28;20448;-68
2021/11/09 02:47:06;;;;;;;9.73;8.57;;;;;;;12.09;66.52;101947.78;2070890;28;20393;-67
2021/11/09 02:49:19;;;;;;;10.27;8.93;;;;;;;12.11;66.30;101962.03;2073432;28;20404;-68
2021/11/09 02:50:22;;;;;;;10.73;8.50;;;;;;;12.06;65.92;101960.50;2073459;28;20913;-68
2021/11/09 02:55:26;;;;;;;9.90;8.70;;;;;;;11.77;66.14;101927.78;2073428;28;20435;-68
2021/11/09 02:56:32;;;;;;;10.17;8.33;;;;;;;11.98;66.22;101961.75;2073443;28;20412;-68
2021/11/09 02:58:49;;;;;;;9.93;8.60;;;;;;;11.38;66.10;101877.31;2073510;28;20473;-68
2021/11/09 03:00:18;;;;;;;10.20;9.10;;;;;;;11.89;66.14;101958.63;2065354;28;20631;-68
2021/11/09 03:05:19;;;;;;;11.40;8.50;;;;;;;12.21;65.69;101980.59;2066818;28;20441;-68
2021/11/09 03:08:38;;;;;;;11.93;8.60;;;;;;;12.12;65.16;101992.19;2065198;28;20452;-67
2021/11/09 03:09:56;;;;;;;10.70;8.20;;;;;;;11.55;65.17;101902.16;2064985;28;20215;-68
2021/11/09 03:10:57;;;;;;;9.83;7.77;;;;;;;12.13;65.16;101985.44;2065276;28;20456;-68
2021/11/09 03:11:59;;;;;;;8.77;7.63;;;;;;;12.18;65.00;101979.44;2064881;28;20975;-68
2021/11/09 03:13:02;;;;;;;9.27;8.20;;;;;;;12.22;64.73;101985.75;2065187;28;20599;-67
2021/11/09 03:14:03;;;;;;;9.67;7.43;;;;;;;12.26;64.75;101985.72;2065109;28;20951;-68
2021/11/09 03:15:07;;;;;;;11.80;8.20;;;;;;;12.26;64.91;101986.53;2065068;28;20765;-68
2021/11/09 03:16:11;;;;;;;10.23;7.77;;;;;;;12.25;65.19;101990.47;2071244;28;20427;-68
2021/11/09 03:17:20;;;;;;;10.13;8.10;;;;;;;12.24;64.58;101985.34;2071519;28;20429;-68
2021/11/09 03:18:24;;;;;;;9.60;7.97;;;;;;;12.28;64.47;101983.31;2072683;28;20426;-68
2021/11/09 03:19:41;;;;;;;8.87;7.50;;;;;;;12.32;64.49;101984.06;2072468;28;20439;-68
2021/11/09 03:40:48;;;;;;;8.70;7.00;;;;;;;12.34;64.07;101985.25;2073087;28;20385;-68
2021/11/09 03:45:32;;;;;;;8.43;7.07;;;;;;;12.40;63.99;101986.38;2073018;28;20454;-68
2021/11/09 03:46:32;;;;;;;10.43;7.13;;;;;;;12.35;63.78;101988.81;2073139;28;20158;-68
2021/11/09 03:47:38;;;;;;;9.07;6.90;;;;;;;11.84;63.76;101909.06;2072041;28;20424;-68
2021/11/09 03:48:38;;;;;;;14.97;7.60;;;;;;;12.32;64.36;101986.84;2072192;28;20230;-67
2021/11/09 03:49:40;;;;;;;11.80;7.43;;;;;;;12.32;64.46;101976.53;2072300;28;20464;-67
2021/11/09 03:50:43;;;;;;;10.10;8.07;;;;;;;12.39;64.63;101993.13;2073016;28;20257;-67
2021/11/09 03:51:44;;;;;;;8.80;7.10;;;;;;;12.36;64.06;101988.41;2072966;28;20416;-67
2021/11/09 03:54:01;;;;;;;8.07;7.00;;;;;;;12.34;64.13;101999.13;2072999;28;20169;-68
2021/11/09 03:55:03;;;;;;;8.67;7.77;;;;;;;12.30;64.39;102003.16;2072742;28;20447;-68
2021/11/09 03:56:14;;;;;;;9.47;7.57;;;;;;;12.34;64.48;102004.69;2072865;28;20413;-68
2021/11/09 03:58:40;;;;;;;9.33;7.40;;;;;;;12.40;64.62;102002.28;2073279;28;21081;-68
2021/11/09 04:01:04;;;;;;;8.57;7.27;;;;;;;12.41;64.69;101990.72;2072815;28;20924;-68
2021/11/09 04:02:21;;;;;;;9.53;7.90;;;;;;;12.40;64.73;101991.94;2072412;28;20823;-67
2021/11/09 04:05:59;;;;;;;9.13;8.10;;;;;;;11.70;65.16;101903.66;2072944;28;20479;-67
2021/11/09 04:12:08;;;;;;;10.67;8.63;;;;;;;12.36;65.59;102015.41;2072888;28;20428;-68
2021/11/09 04:13:34;;;;;;;9.40;8.40;;;;;;;12.43;65.39;102018.13;2072755;28;20161;-68
2021/11/09 04:14:53;;;;;;;10.03;8.20;;;;;;;12.41;65.41;102004.63;2072765;28;20838;-67
2021/11/09 04:18:20;;;;;;;12.70;8.37;;;;;;;11.88;65.32;101903.53;2072941;28;20460;-68
2021/11/09 04:19:28;;;;;;;10.50;8.63;;;;;;;12.46;64.94;102014.53;2072697;28;20435;-68
2021/11/09 04:22:04;;;;;;;9.83;8.83;;;;;;;12.46;65.45;102009.75;2073012;28;21007;-68
2021/11/09 04:30:28;;;;;;;11.77;9.23;;;;;;;12.23;65.87;101989.31;2072758;28;20456;-68
2021/11/09 04:53:07;;;;;;;10.77;9.20;;;;;;;12.33;65.37;102024.56;2072328;28;20880;-68
2021/11/09 05:02:31;;;;;;;12.63;9.63;;;;;;;12.14;65.50;102042.59;2072232;28;20399;-67
2021/11/09 05:09:57;;;;;;;11.20;9.80;;;;;;;11.78;65.77;101990.50;2072596;28;20405;-67
2021/11/09 05:10:59;;;;;;;15.20;10.53;;;;;;;12.16;65.79;102034.66;2071565;28;20405;-68
2021/11/09 05:12:00;;;;;;;11.50;10.30;;;;;;;12.12;65.72;102045.00;2072025;28;20407;-67
2021/11/09 05:13:01;;;;;;;11.27;10.17;;;;;;;12.17;65.73;102050.13;2072321;28;20417;-67
2021/11/09 05:14:02;;;;;;;13.23;9.57;;;;;;;11.50;65.49;101941.47;2072756;28;20338;-67
2021/11/09 05:15:04;;;;;;;13.03;10.03;;;;;;;12.17;65.50;102055.69;2072211;28;20934;-67
2021/11/09 05:16:04;;;;;;;13.67;10.17;;;;;;;12.10;65.27;102058.50;2072252;28;20204;-68
2021/11/09 05:17:05;;;;;;;12.43;10.50;;;;;;;12.01;65.42;102043.50;2071280;28;20955;-68
2021/11/09 05:18:06;;;;;;;10.97;9.60;;;;;;;12.19;65.25;102061.59;2072399;28;20162;-68
2021/11/09 05:19:08;;;;;;;11.60;10.40;;;;;;;12.19;65.25;102067.16;2072280;28;20221;-68
2021/11/09 05:20:09;;;;;;;14.20;10.57;;;;;;;11.81;65.26;102014.66;2072263;28;20644;-67
2021/11/09 05:21:10;;;;;;;13.63;10.63;;;;;;;11.57;65.68;101988.59;2071502;28;20515;-68
2021/11/09 05:22:10;;;;;;;14.13;10.20;;;;;;;12.02;65.75;102073.66;2071442;28;20405;-67
2021/11/09 05:23:11;;;;;;;12.63;10.27;;;;;;;12.04;65.68;102082.34;2072191;28;20539;-67
2021/11/09 05:24:12;;;;;;;11.50;10.00;;;;;;;12.05;65.60;102083.16;2072384;28;20243;-68
2021/11/09 05:25:13;;;;;;;12.13;10.20;;;;;;;12.12;65.39;102089.47;2071424;28;20741;-68
2021/11/09 05:26:14;;;;;;;12.53;10.67;;;;;;;12.12;65.20;102085.88;2071737;28;20209;-67
2021/11/09 05:27:16;;;;;;;13.27;10.13;;;;;;;12.14;65.30;102100.19;2070221;28;20437;-68
2021/11/09 05:28:17;;;;;;;13.60;10.10;;;;;;;11.84;65.46;102056.28;2071822;28;20260;-67
2021/11/09 05:29:18;;;;;;;11.37;9.97;;;;;;;12.15;65.29;102098.97;2072228;28;20427;-67
2021/11/09 05:30:20;;;;;;;11.10;9.83;;;;;;;12.17;65.46;102105.72;2072298;28;20193;-67
2021/11/09 05:31:21;;;;;;;11.37;10.17;;;;;;;12.10;65.16;102099.41;2072179;28;20239;-68
2021/11/09 05:32:22;;;;;;;11.90;10.70;;;;;;;12.20;65.04;102102.09;2071790;28;20409;-68
2021/11/09 05:33:23;;;;;;;12.07;9.97;;;;;;;12.17;64.98;102110.47;2072266;28;20177;-68
2021/11/09 05:34:26;;;;;;;11.93;10.03;;;;;;;12.12;65.12;102117.25;2079698;28;20181;-68
2021/11/09 05:35:27;;;;;;;11.40;10.17;;;;;;;11.89;65.20;102074.53;2079540;28;20430;-68
2021/11/09 05:36:37;;;;;;;12.67;10.47;;;;;;;11.89;65.09;102068.97;2071542;28;21150;-68
2021/11/09 05:37:45;;;;;;;11.33;10.13;;;;;;;11.87;65.01;102088.84;2071235;28;20173;-68
2021/11/09 05:38:50;;;;;;;13.80;10.90;;;;;;;12.05;65.18;102114.50;2072284;28;20408;-67
2021/11/09 05:39:53;;;;;;;11.50;10.30;;;;;;;12.23;65.09;102129.09;2072070;28;20424;-68
2021/11/09 05:40:57;;;;;;;11.87;10.20;;;;;;;12.26;64.74;102130.25;2072202;28;20784;-68
2021/11/09 05:41:58;;;;;;;11.07;9.60;;;;;;;12.18;65.05;102126.75;2071999;28;20416;-68
2021/11/09 05:42:59;;;;;;;12.70;10.13;;;;;;;12.20;64.90;102129.88;2072361;28;20912;-68
2021/11/09 05:44:00;;;;;;;11.07;9.90;;;;;;;12.19;65.11;102138.66;2072106;28;20227;-68
2021/11/09 05:45:01;;;;;;;12.27;10.63;;;;;;;12.17;64.99;102133.50;2072088;28;20451;-68
2021/11/09 05:46:02;;;;;;;12.17;10.37;;;;;;;12.12;64.96;102156.16;2072148;28;20168;-67
2021/11/09 05:47:03;;;;;;;11.30;10.10;;;;;;;11.58;64.49;102075.47;2071281;28;20437;-68
2021/11/09 05:48:04;;;;;;;12.13;10.07;;;;;;;12.07;64.84;102153.81;2066412;28;20429;-67
2021/11/09 05:49:05;;;;;;;13.70;10.43;;;;;;;12.15;64.93;102152.56;2074746;28;20177;-67
2021/11/09 05:50:07;;;;;;;14.10;10.70;;;;;;;12.14;64.98;102164.88;2072451;28;20181;-68
2021/11/09 05:51:08;;;;;;;11.47;10.27;;;;;;;12.17;65.40;102152.16;2071362;28;20473;-68
2021/11/09 05:52:09;;;;;;;14.43;10.90;;;;;;;12.05;65.42;102160.97;2075333;28;20830;-68
2021/11/09 05:53:10;;;;;;;12.27;10.30;;;;;;;12.07;65.88;102164.13;2067869;28;20875;-68
2021/11/09 05:54:11;;;;;;;12.63;11.23;;;;;;;11.34;66.05;102054.97;2071283;28;20181;-68
2021/11/09 05:55:11;;;;;;;14.00;11.07;;;;;;;11.97;66.41;102174.09;2061261;28;20563;-68
2021/11/09 05:56:12;;;;;;;15.97;11.03;;;;;;;11.80;66.92;102157.53;2068360;28;20198;-68
2021/11/09 05:57:13;;;;;;;12.43;11.10;;;;;;;11.62;67.11;102140.94;2066379;28;20189;-68
2021/11/09 05:58:13;;;;;;;13.23;11.83;;;;;;;11.58;67.67;102139.34;2071312;28;20181;-68
2021/11/09 05:59:14;;;;;;;15.90;11.97;;;;;;;11.91;67.96;102183.25;2070036;28;20190;-68
2021/11/09 06:00:14;;;;;;;14.40;11.63;;;;;;;11.86;67.83;102183.69;2069989;28;20675;-68
2021/11/09 06:01:15;;;;;;;12.50;11.20;;;;;;;11.80;67.34;102213.06;2063614;28;21532;-68
2021/11/09 06:02:16;;;;;;;13.13;11.37;;;;;;;11.82;68.07;102192.03;2068398;28;20500;-67
2021/11/09 06:03:19;;;;;;;14.33;12.37;;;;;;;11.86;68.45;102189.22;2070920;28;20639;-67
2021/11/09 06:04:19;;;;;;;13.90;12.10;;;;;;;11.90;68.52;102192.78;2069794;28;20174;-67
2021/11/09 06:05:20;;;;;;;15.70;12.80;;;;;;;11.98;68.32;102184.03;2071715;28;20478;-68
2021/11/09 06:06:21;;;;;;;13.40;12.00;;;;;;;11.86;68.56;102173.38;2073295;28;20179;-67
2021/11/09 06:07:21;;;;;;;17.47;11.57;;;;;;;11.96;68.08;102191.19;2072937;28;20232;-67
2021/11/09 06:08:22;;;;;;;13.50;12.10;;;;;;;11.95;67.55;102190.38;2074174;28;20871;-67
2021/11/09 06:09:23;;;;;;;13.27;11.67;;;;;;;11.65;67.91;102148.47;2070790;28;20259;-68
2021/11/09 06:10:24;;;;;;;15.33;12.17;;;;;;;11.90;67.68;102195.56;2075990;28;20459;-67
2021/11/09 06:11:24;;;;;;;13.27;11.57;;;;;;;11.85;67.73;102185.69;2065009;28;20408;-67
2021/11/09 06:12:25;;;;;;;13.90;11.60;;;;;;;12.00;67.41;102203.06;2061545;28;20728;-67
2021/11/09 06:13:25;;;;;;;16.33;11.57;;;;;;;11.94;67.62;102174.91;2070644;28;20256;-67
2021/11/09 06:14:27;;;;;;;14.80;11.10;;;;;;;11.99;67.45;102184.81;2072698;28;20662;-68
2021/11/09 06:15:28;;;;;;;12.93;11.57;;;;;;;12.00;66.99;102183.63;2078047;28;20189;-67
2021/11/09 06:16:28;;;;;;;12.40;11.03;;;;;;;12.08;67.24;102190.72;2073702;28;20423;-67
2021/11/09 06:17:29;;;;;;;13.37;11.20;;;;;;;12.06;66.77;102195.88;2070091;28;20263;-67
2021/11/09 06:18:29;;;;;;;13.33;11.93;;;;;;;12.00;66.77;102178.06;2072139;28;20260;-67
2021/11/09 06:19:30;;;;;;;14.53;12.17;;;;;;;12.03;66.78;102196.69;2077154;28;20645;-67
2021/11/09 06:20:30;;;;;;;13.50;12.10;;;;;;;12.16;66.85;102203.38;2072832;28;20208;-67
2021/11/09 06:21:31;;;;;;;12.90;11.60;;;;;;;11.42;66.91;102102.91;2077200;28;20539;-67
2021/11/09 06:22:32;;;;;;;13.97;11.43;;;;;;;12.15;66.80;102210.91;2077664;28;20195;-67
2021/11/09 06:23:33;;;;;;;12.83;11.47;;;;;;;12.14;66.46;102208.56;2073588;28;20516;-67